Terminal Aerodrome Forecast
Issued by NWS

Home | Current Version | Previous Version | Graphics & Text | Print | Product List | Glossary On
Versions: 1 2 3 4 5 6 7 8 9 10 11 12
000
FTUS45 KGGW 182327
TAFSDY
TAF
KSDY 182327Z 1900/1924 VRB05KT P6SM FEW230
     FM191400 25008KT P6SM SCT190
     FM191600 28012KT P6SM SCT180
     FM192200 32015G24KT P6SM FEW150=

USA.gov is the U.S. government's official web portal to all federal, state and local government web resources and services.